createdAt,value
2018-07-16T00:00:16.253Z,5.93
2018-07-16T00:02:43.853Z,6.33
2018-07-16T00:05:11.784Z,5.13
2018-07-16T00:07:39.807Z,5.40
2018-07-16T00:10:07.874Z,6.60
2018-07-16T00:12:35.398Z,6.03
2018-07-16T00:15:02.996Z,5.60
2018-07-16T00:17:31.781Z,6.30
2018-07-16T00:19:59.704Z,6.07
2018-07-16T00:22:27.671Z,8.60
2018-07-16T00:24:55.199Z,8.53
2018-07-16T00:27:22.688Z,6.23
2018-07-16T00:29:51.470Z,5.40
2018-07-16T00:32:19.442Z,5.23
2018-07-16T00:34:47.674Z,4.63
2018-07-16T00:37:15.621Z,4.97
2018-07-16T00:39:43.206Z,5.57
2018-07-16T00:42:11.336Z,5.50
2018-07-16T00:44:39.214Z,5.20
2018-07-16T00:47:07.736Z,5.27
2018-07-16T00:49:35.511Z,5.07
2018-07-16T00:52:03.031Z,5.03
2018-07-16T00:54:30.560Z,4.90
2018-07-16T00:56:58.605Z,7.90
2018-07-16T00:59:26.116Z,5.97
2018-07-16T01:01:54.310Z,6.00
2018-07-16T01:04:21.854Z,6.30
2018-07-16T01:06:49.384Z,7.90
2018-07-16T01:09:17.312Z,6.70
2018-07-16T01:11:45.118Z,5.50
2018-07-16T01:14:14.411Z,7.10
2018-07-16T01:16:41.992Z,6.00
2018-07-16T01:19:10.032Z,4.77
2018-07-16T01:21:37.576Z,7.07
2018-07-16T01:24:05.149Z,6.40
2018-07-16T01:26:32.680Z,5.10
2018-07-16T01:29:00.173Z,5.47
2018-07-16T01:31:28.180Z,5.67
2018-07-16T01:33:55.684Z,8.10
2018-07-16T01:36:23.618Z,7.23
2018-07-16T01:38:51.484Z,7.43
2018-07-16T01:41:19.455Z,5.33
2018-07-16T01:43:47.319Z,5.37
2018-07-16T01:46:15.389Z,5.90
2018-07-16T01:48:42.900Z,6.27
2018-07-16T01:51:10.408Z,5.00
2018-07-16T01:53:37.951Z,5.30
2018-07-16T01:56:05.568Z,5.57
2018-07-16T01:58:33.233Z,5.60
2018-07-16T02:01:02.306Z,4.90
2018-07-16T02:03:32.071Z,6.83
2018-07-16T02:06:00.295Z,5.03
2018-07-16T02:08:28.567Z,4.80
2018-07-16T02:10:57.472Z,5.17
2018-07-16T02:13:25.016Z,5.43
2018-07-16T02:15:53.212Z,5.70
2018-07-16T02:18:21.431Z,4.50
2018-07-16T02:20:49.516Z,3.97
2018-07-16T02:23:17.692Z,5.00
2018-07-16T02:25:45.304Z,7.00
2018-07-16T02:28:14.821Z,8.07
2018-07-16T02:30:43.512Z,6.27
2018-07-16T02:33:12.052Z,5.57
2018-07-16T02:35:40.376Z,6.70
2018-07-16T02:38:07.865Z,7.20
2018-07-16T02:40:36.021Z,6.67
2018-07-16T02:43:03.920Z,6.70
2018-07-16T02:45:32.095Z,7.00
2018-07-16T02:47:59.894Z,5.90
2018-07-16T02:50:27.702Z,6.10
2018-07-16T02:52:55.237Z,5.60
2018-07-16T02:55:22.797Z,5.87
2018-07-16T02:57:50.773Z,5.83
2018-07-16T03:00:18.434Z,6.20
2018-07-16T03:02:46.021Z,5.40
2018-07-16T03:05:20.142Z,7.80
2018-07-16T03:07:49.066Z,7.40
2018-07-16T03:10:17.228Z,9.10
2018-07-16T03:12:45.738Z,7.30
2018-07-16T03:15:14.388Z,6.37
2018-07-16T03:17:42.231Z,5.20
2018-07-16T03:20:10.315Z,5.50
2018-07-16T03:22:38.434Z,5.80
2018-07-16T03:25:06.494Z,5.97
2018-07-16T03:27:34.218Z,5.70
2018-07-16T03:30:01.748Z,8.43
2018-07-16T03:32:29.664Z,7.57
2018-07-16T03:34:57.687Z,6.77
2018-07-16T03:37:25.571Z,4.70
2018-07-16T03:39:54.457Z,6.00
2018-07-16T03:42:21.956Z,6.43
2018-07-16T03:44:49.895Z,5.33
2018-07-16T03:47:18.637Z,6.27
2018-07-16T03:49:46.192Z,5.20
2018-07-16T03:52:13.701Z,6.13
2018-07-16T03:54:41.824Z,6.13
2018-07-16T03:57:10.017Z,6.10
2018-07-16T03:59:37.527Z,6.60
2018-07-16T04:02:05.010Z,8.10
2018-07-16T04:04:32.557Z,7.20
2018-07-16T04:07:00.580Z,6.03
2018-07-16T04:09:29.828Z,7.87
2018-07-16T04:11:57.812Z,8.07
2018-07-16T04:14:25.357Z,8.93
2018-07-16T04:16:52.936Z,8.03
2018-07-16T04:19:20.904Z,7.70
2018-07-16T04:21:48.406Z,7.73
2018-07-16T04:24:15.903Z,8.13
2018-07-16T04:26:43.428Z,7.40
2018-07-16T04:29:10.938Z,6.20
2018-07-16T04:31:39.760Z,6.10
2018-07-16T04:34:07.992Z,7.20
2018-07-16T04:36:35.866Z,8.00
2018-07-16T04:39:05.056Z,6.90
2018-07-16T04:41:32.604Z,8.30
2018-07-16T04:44:01.036Z,6.77
2018-07-16T04:46:28.581Z,7.17
2018-07-16T04:48:56.079Z,8.50
2018-07-16T04:51:23.620Z,7.57
2018-07-16T04:53:51.179Z,7.80
2018-07-16T04:56:18.773Z,8.97
2018-07-16T04:58:46.344Z,7.40
2018-07-16T05:01:13.888Z,8.17
2018-07-16T05:03:41.804Z,7.70
2018-07-16T05:06:09.313Z,6.73
2018-07-16T05:08:37.623Z,6.97
2018-07-16T05:11:05.696Z,5.80
2018-07-16T05:13:33.212Z,7.23
2018-07-16T05:16:01.217Z,6.77
2018-07-16T05:18:29.852Z,5.60
2018-07-16T05:20:57.364Z,5.63
2018-07-16T05:23:24.860Z,6.80
2018-07-16T05:25:52.394Z,6.60
2018-07-16T05:28:19.900Z,8.10
2018-07-16T05:30:47.866Z,7.00
2018-07-16T05:33:15.695Z,7.87
2018-07-16T05:35:43.650Z,8.00
2018-07-16T05:38:11.814Z,7.20
2018-07-16T05:40:39.687Z,6.77
2018-07-16T05:43:07.728Z,7.03
2018-07-16T05:45:35.804Z,6.57
2018-07-16T05:48:03.495Z,5.17
2018-07-16T05:50:31.020Z,5.93
2018-07-16T05:52:58.532Z,5.80
2018-07-16T05:55:26.319Z,5.90
2018-07-16T05:57:53.975Z,5.30
2018-07-16T06:00:21.612Z,5.03
2018-07-16T06:02:49.641Z,6.30
2018-07-16T06:05:17.572Z,5.20
2018-07-16T06:07:45.945Z,6.67
2018-07-16T06:10:13.841Z,6.20
2018-07-16T06:12:41.594Z,4.87
2018-07-16T06:15:09.140Z,5.97
2018-07-16T06:17:36.696Z,7.50
2018-07-16T06:20:07.020Z,7.50
2018-07-16T06:22:34.533Z,7.33
2018-07-16T06:25:02.058Z,7.20
2018-07-16T06:27:29.597Z,7.17
2018-07-16T06:29:57.576Z,7.37
2018-07-16T06:32:25.440Z,6.20
2018-07-16T06:34:53.464Z,5.50
2018-07-16T06:37:20.976Z,6.20
2018-07-16T06:39:48.798Z,5.50
2018-07-16T06:42:16.978Z,5.80
2018-07-16T06:44:44.821Z,5.50
2018-07-16T06:47:12.346Z,7.40
2018-07-16T06:49:39.842Z,6.23
2018-07-16T06:52:07.450Z,6.00
2018-07-16T06:54:35.223Z,6.07
2018-07-16T06:57:03.119Z,7.27
2018-07-16T06:59:31.154Z,5.73
2018-07-16T07:01:58.670Z,4.50
2018-07-16T07:04:26.560Z,4.30
2018-07-16T07:06:54.111Z,6.40
2018-07-16T07:09:22.203Z,5.20
2018-07-16T07:11:50.574Z,5.33
2018-07-16T07:14:18.042Z,5.90
2018-07-16T07:16:45.498Z,5.20
2018-07-16T07:19:13.588Z,5.90
2018-07-16T07:21:41.075Z,5.40
2018-07-16T07:24:08.766Z,5.50
2018-07-16T07:26:36.362Z,6.53
2018-07-16T07:29:04.557Z,6.57
2018-07-16T07:31:32.586Z,5.83
2018-07-16T07:34:00.155Z,5.90
2018-07-16T07:36:28.181Z,6.20
2018-07-16T07:38:56.354Z,5.70
2018-07-16T07:41:24.667Z,5.07
2018-07-16T07:43:52.562Z,6.20
2018-07-16T07:46:20.132Z,5.60
2018-07-16T07:48:47.668Z,5.40
2018-07-16T07:51:15.290Z,5.50
2018-07-16T07:53:43.074Z,6.07
2018-07-16T07:56:11.163Z,6.30
2018-07-16T07:58:39.027Z,6.23
2018-07-16T08:01:07.241Z,6.40
2018-07-16T08:03:35.041Z,5.20
2018-07-16T08:06:06.549Z,6.40
2018-07-16T08:08:35.698Z,6.53
2018-07-16T08:11:04.310Z,5.50
2018-07-16T08:13:32.542Z,5.60
2018-07-16T08:16:00.367Z,5.97
2018-07-16T08:18:28.858Z,5.80
2018-07-16T08:20:56.563Z,5.90
2018-07-16T08:23:24.311Z,6.23
2018-07-16T08:25:52.749Z,5.50
2018-07-16T08:28:21.161Z,5.87
2018-07-16T08:30:49.613Z,6.00
2018-07-16T08:33:17.706Z,6.20
2018-07-16T08:35:45.594Z,6.00
2018-07-16T08:38:13.594Z,6.13
2018-07-16T08:40:41.130Z,5.40
2018-07-16T08:43:09.054Z,5.73
2018-07-16T08:45:37.202Z,6.37
2018-07-16T08:48:04.705Z,6.90
2018-07-16T08:50:32.222Z,6.67
2018-07-16T08:52:59.763Z,7.20
2018-07-16T08:55:27.853Z,7.23
2018-07-16T08:57:55.954Z,6.00
2018-07-16T09:00:23.856Z,5.40
2018-07-16T09:02:51.429Z,6.40
2018-07-16T09:05:19.112Z,5.47
2018-07-16T09:07:47.034Z,5.53
2018-07-16T09:10:15.270Z,6.03
2018-07-16T09:12:42.833Z,7.10
2018-07-16T09:15:10.812Z,7.00
2018-07-16T09:17:38.317Z,6.17
2018-07-16T09:20:06.184Z,7.67
2018-07-16T09:22:33.733Z,6.70
2018-07-16T09:25:01.294Z,6.63
2018-07-16T09:27:29.166Z,5.67
2018-07-16T09:29:56.677Z,4.80
2018-07-16T09:32:24.732Z,4.77
2018-07-16T09:34:53.506Z,5.90
2018-07-16T09:37:21.584Z,5.83
2018-07-16T09:39:49.940Z,6.17
2018-07-16T09:42:17.416Z,6.67
2018-07-16T09:44:45.312Z,5.73
2018-07-16T09:47:12.812Z,6.03
2018-07-16T09:49:40.356Z,5.20
2018-07-16T09:52:08.226Z,6.47
2018-07-16T09:54:36.986Z,5.23
2018-07-16T09:57:05.321Z,6.70
2018-07-16T09:59:32.871Z,5.70
2018-07-16T10:02:06.222Z,6.27
2018-07-16T10:04:33.717Z,5.20
2018-07-16T10:07:01.326Z,6.60
2018-07-16T10:09:29.096Z,5.50
2018-07-16T10:11:56.866Z,6.60
2018-07-16T10:14:24.548Z,6.20
2018-07-16T10:16:52.327Z,6.50
2018-07-16T10:19:20.276Z,7.20
2018-07-16T10:21:48.278Z,4.77
2018-07-16T10:24:16.548Z,5.67
2018-07-16T10:26:44.428Z,5.00
2018-07-16T10:29:11.949Z,5.57
2018-07-16T10:31:39.900Z,6.13
2018-07-16T10:34:07.892Z,5.70
2018-07-16T10:36:35.414Z,4.77
2018-07-16T10:39:04.213Z,4.77
2018-07-16T10:41:31.783Z,4.80
2018-07-16T10:43:59.841Z,4.90
2018-07-16T10:46:27.400Z,3.90
2018-07-16T10:48:54.914Z,4.57
2018-07-16T10:51:22.858Z,5.43
2018-07-16T10:53:50.353Z,4.80
2018-07-16T10:56:18.306Z,4.57
2018-07-16T10:58:45.866Z,5.20
2018-07-16T11:01:13.853Z,4.70
2018-07-16T11:03:41.412Z,5.23
2018-07-16T11:06:14.703Z,4.70
2018-07-16T11:08:43.162Z,5.40
2018-07-16T11:11:11.090Z,4.90
2018-07-16T11:13:38.614Z,5.60
2018-07-16T11:16:06.145Z,4.30
2018-07-16T11:18:34.836Z,5.00
2018-07-16T11:21:02.853Z,4.80
2018-07-16T11:23:30.433Z,4.33
2018-07-16T11:25:58.278Z,4.70
2018-07-16T11:28:26.543Z,4.67
2018-07-16T11:30:55.496Z,3.90
2018-07-16T11:33:23.526Z,4.40
2018-07-16T11:35:51.076Z,4.70
2018-07-16T11:38:18.701Z,3.70
2018-07-16T11:40:46.533Z,4.00
2018-07-16T11:43:14.750Z,4.60
2018-07-16T11:45:42.672Z,4.20
2018-07-16T11:48:10.503Z,4.30
2018-07-16T11:50:38.010Z,4.53
2018-07-16T11:53:06.039Z,4.80
2018-07-16T11:55:33.669Z,4.40
2018-07-16T11:58:01.530Z,4.60
2018-07-16T12:00:29.225Z,4.20
2018-07-16T12:02:56.861Z,4.67
2018-07-16T12:05:24.557Z,4.30
2018-07-16T12:07:52.926Z,4.03
2018-07-16T12:10:20.440Z,4.20
2018-07-16T12:12:48.655Z,3.83
2018-07-16T12:15:16.672Z,4.47
2018-07-16T12:17:44.864Z,4.50
2018-07-16T12:20:12.926Z,4.40
2018-07-16T12:22:40.473Z,5.10
2018-07-16T12:25:08.585Z,4.57
2018-07-16T12:27:36.350Z,4.30
2018-07-16T12:30:04.518Z,5.03
2018-07-16T12:32:33.424Z,4.73
2018-07-16T12:35:01.032Z,4.30
2018-07-16T12:37:28.631Z,4.40
2018-07-16T12:39:58.149Z,4.37
2018-07-16T12:42:26.381Z,5.10
2018-07-16T12:44:54.604Z,4.50
2018-07-16T12:47:22.194Z,4.27
2018-07-16T12:49:50.464Z,4.40
2018-07-16T12:52:18.964Z,4.83
2018-07-16T12:54:46.472Z,4.20
2018-07-16T12:57:14.061Z,4.67
2018-07-16T12:59:41.638Z,3.90
2018-07-16T13:02:09.407Z,3.97
2018-07-16T13:04:36.952Z,3.70
2018-07-16T13:07:05.495Z,4.60
2018-07-16T13:09:33.426Z,4.30
2018-07-16T13:12:01.306Z,3.90
2018-07-16T13:14:29.458Z,3.80
2018-07-16T13:16:57.317Z,4.17
2018-07-16T13:19:25.319Z,5.10
2018-07-16T13:21:53.029Z,4.90
2018-07-16T13:24:20.932Z,4.23
2018-07-16T13:26:48.775Z,4.07
2018-07-16T13:29:16.308Z,3.90
2018-07-16T13:31:44.352Z,4.07
2018-07-16T13:34:12.284Z,3.57
2018-07-16T13:36:40.832Z,3.97
2018-07-16T13:39:09.676Z,4.17
2018-07-16T13:41:37.186Z,3.73
2018-07-16T13:44:05.164Z,3.60
2018-07-16T13:46:33.052Z,3.73
2018-07-16T13:49:00.925Z,3.50
2018-07-16T13:51:28.383Z,3.80
2018-07-16T13:53:55.831Z,3.10
2018-07-16T13:56:23.373Z,2.83
2018-07-16T13:58:50.878Z,3.30
2018-07-16T14:01:18.461Z,3.10
2018-07-16T14:03:45.980Z,2.80
2018-07-16T14:06:13.493Z,3.27
2018-07-16T14:08:41.688Z,3.37
2018-07-16T14:11:09.708Z,3.43
2018-07-16T14:13:37.656Z,3.23
2018-07-16T14:16:05.764Z,3.00
2018-07-16T14:18:33.637Z,2.40
2018-07-16T14:21:01.729Z,2.77
2018-07-16T14:23:29.563Z,2.47
2018-07-16T14:25:57.378Z,2.60
2018-07-16T14:28:24.922Z,2.67
2018-07-16T14:30:53.063Z,2.70
2018-07-16T14:33:20.578Z,2.90
2018-07-16T14:35:48.485Z,2.50
2018-07-16T14:38:16.127Z,2.43
2018-07-16T14:40:44.055Z,2.67
2018-07-16T14:43:11.562Z,2.80
2018-07-16T14:45:39.994Z,2.60
2018-07-16T14:48:08.154Z,2.60
2018-07-16T14:50:35.800Z,3.20
2018-07-16T14:53:03.955Z,3.37
2018-07-16T14:55:31.526Z,2.90
2018-07-16T14:57:59.162Z,3.73
2018-07-16T15:00:27.435Z,3.17
2018-07-16T15:02:54.943Z,3.20
2018-07-16T15:05:22.464Z,3.00
2018-07-16T15:07:50.326Z,3.03
2018-07-16T15:10:17.837Z,3.30
2018-07-16T15:12:45.959Z,3.20
2018-07-16T15:15:15.164Z,3.30
2018-07-16T15:17:42.651Z,3.30
2018-07-16T15:20:11.327Z,2.70
2018-07-16T15:22:39.034Z,3.10
2018-07-16T15:25:07.184Z,3.13
2018-07-16T15:27:34.695Z,3.30
2018-07-16T15:30:02.825Z,3.00
2018-07-16T15:32:30.722Z,3.10
2018-07-16T15:34:58.258Z,3.07
2018-07-16T15:37:26.669Z,3.47
2018-07-16T15:39:54.214Z,2.93
2018-07-16T15:42:22.140Z,3.30
2018-07-16T15:44:50.269Z,3.23
2018-07-16T15:47:18.747Z,3.30
2018-07-16T15:49:46.647Z,3.30
2018-07-16T15:52:14.275Z,2.73
2018-07-16T15:54:41.862Z,3.40
2018-07-16T15:57:09.455Z,2.90
2018-07-16T15:59:37.119Z,3.20
2018-07-16T16:02:04.726Z,2.87
2018-07-16T16:04:32.239Z,2.50
2018-07-16T16:07:00.943Z,2.83
2018-07-16T16:09:28.798Z,2.80
2018-07-16T16:11:56.678Z,2.87
2018-07-16T16:14:24.517Z,3.00
2018-07-16T16:16:52.475Z,2.70
2018-07-16T16:19:20.404Z,2.83
2018-07-16T16:21:47.942Z,3.10
2018-07-16T16:24:15.814Z,2.60
2018-07-16T16:26:43.858Z,2.80
2018-07-16T16:29:11.728Z,2.83
2018-07-16T16:31:39.908Z,2.57
2018-07-16T16:34:07.453Z,2.20
2018-07-16T16:36:35.496Z,7.40
2018-07-16T16:39:05.196Z,3.30
2018-07-16T16:41:33.119Z,2.80
2018-07-16T16:44:01.008Z,2.60
2018-07-16T16:46:28.493Z,2.13
2018-07-16T16:48:56.107Z,2.40
2018-07-16T16:51:23.713Z,2.80
2018-07-16T16:53:51.572Z,2.73
2018-07-16T16:56:19.576Z,3.03
2018-07-16T16:58:47.153Z,3.00
2018-07-16T17:01:14.628Z,2.23
2018-07-16T17:03:42.177Z,2.40
2018-07-16T17:06:10.217Z,2.80
2018-07-16T17:08:38.601Z,2.80
2018-07-16T17:11:06.556Z,3.03
2018-07-16T17:13:34.065Z,2.70
2018-07-16T17:16:02.469Z,2.60
2018-07-16T17:18:30.513Z,3.10
2018-07-16T17:20:58.042Z,2.67
2018-07-16T17:23:25.575Z,3.10
2018-07-16T17:25:53.169Z,3.00
2018-07-16T17:28:21.259Z,2.93
2018-07-16T17:30:49.230Z,3.00
2018-07-16T17:33:17.233Z,3.00
2018-07-16T17:35:44.756Z,2.80
2018-07-16T17:38:12.692Z,3.20
2018-07-16T17:40:40.208Z,3.37
2018-07-16T17:43:08.137Z,3.33
2018-07-16T17:45:36.090Z,3.50
2018-07-16T17:48:03.776Z,5.07
2018-07-16T17:50:31.292Z,3.70
2018-07-16T17:52:59.381Z,3.90
2018-07-16T17:55:27.341Z,4.37
2018-07-16T17:57:55.718Z,3.87
2018-07-16T18:00:23.268Z,3.60
2018-07-16T18:02:50.774Z,4.37
2018-07-16T18:05:18.580Z,3.83
2018-07-16T18:07:46.487Z,3.97
2018-07-16T18:10:13.968Z,4.03
2018-07-16T18:12:42.086Z,4.00
2018-07-16T18:15:09.932Z,4.10
2018-07-16T18:17:37.473Z,4.40
2018-07-16T18:20:05.329Z,3.77
2018-07-16T18:22:33.310Z,5.70
2018-07-16T18:25:01.692Z,5.47
2018-07-16T18:27:29.921Z,4.23
2018-07-16T18:29:58.354Z,4.50
2018-07-16T18:32:26.784Z,4.60
2018-07-16T18:34:56.597Z,3.80
2018-07-16T18:37:24.898Z,2.00
2018-07-16T18:39:53.554Z,2.20
2018-07-16T18:42:22.093Z,2.10
2018-07-16T18:44:50.441Z,2.20
2018-07-16T18:47:18.254Z,2.10
2018-07-16T18:49:46.440Z,1.90
2018-07-16T18:52:15.014Z,2.00
2018-07-16T18:54:43.495Z,2.30
2018-07-16T18:57:12.432Z,2.07
2018-07-16T18:59:41.546Z,2.40
2018-07-16T19:02:10.117Z,2.50
2018-07-16T19:04:38.077Z,3.30
2018-07-16T19:07:06.489Z,2.77
2018-07-16T19:09:35.456Z,2.43
2018-07-16T19:12:03.789Z,2.67
2018-07-16T19:14:31.825Z,2.33
2018-07-16T19:17:00.692Z,2.80
2018-07-16T19:19:29.633Z,2.23
2018-07-16T19:21:57.252Z,2.77
2018-07-16T19:24:24.964Z,7.33
2018-07-16T19:26:53.188Z,2.90
2018-07-16T19:29:21.477Z,2.40
2018-07-16T19:31:49.492Z,2.40
2018-07-16T19:34:17.541Z,2.10
2018-07-16T19:36:45.081Z,1.73
2018-07-16T19:39:13.160Z,1.80
2018-07-16T19:41:41.264Z,2.00
2018-07-16T19:44:09.672Z,2.20
2018-07-16T19:46:37.769Z,1.90
2018-07-16T19:49:05.548Z,2.17
2018-07-16T19:51:33.458Z,2.93
2018-07-16T19:54:00.979Z,3.03
2018-07-16T19:56:29.058Z,2.40
2018-07-16T19:58:56.614Z,1.80
2018-07-16T20:01:24.482Z,2.30
2018-07-16T20:03:52.036Z,2.47
2018-07-16T20:06:20.214Z,2.27
2018-07-16T20:08:48.437Z,2.07
2018-07-16T20:11:16.694Z,1.90
2018-07-16T20:13:44.215Z,2.50
2018-07-16T20:16:12.309Z,1.87
2018-07-16T20:18:40.218Z,1.70
2018-07-16T20:21:08.247Z,1.97
2018-07-16T20:23:36.126Z,3.00
2018-07-16T20:26:05.094Z,2.73
2018-07-16T20:28:32.722Z,2.10
2018-07-16T20:31:00.634Z,1.50
2018-07-16T20:33:28.194Z,1.30
2018-07-16T20:35:55.879Z,2.53
2018-07-16T20:38:23.407Z,1.90
2018-07-16T20:40:51.095Z,2.17
2018-07-16T20:43:19.022Z,2.07
2018-07-16T20:45:47.058Z,1.97
2018-07-16T20:48:14.605Z,2.50
2018-07-16T20:50:42.818Z,2.43
2018-07-16T20:53:12.095Z,3.40
2018-07-16T20:55:39.605Z,2.30
2018-07-16T20:58:07.984Z,2.30
2018-07-16T21:00:35.568Z,1.60
2018-07-16T21:03:03.512Z,1.90
2018-07-16T21:05:31.757Z,2.27
2018-07-16T21:07:59.749Z,3.07
2018-07-16T21:10:27.628Z,2.10
2018-07-16T21:12:56.719Z,2.70
2018-07-16T21:15:24.253Z,3.40
2018-07-16T21:17:52.165Z,3.40
2018-07-16T21:20:20.120Z,2.67
2018-07-16T21:22:47.976Z,3.07
2018-07-16T21:25:15.948Z,3.37
2018-07-16T21:27:44.032Z,3.03
2018-07-16T21:30:12.386Z,4.00
2018-07-16T21:32:39.893Z,3.63
2018-07-16T21:35:07.468Z,2.67
2018-07-16T21:37:35.004Z,2.00
2018-07-16T21:40:02.577Z,2.33
2018-07-16T21:42:30.288Z,3.20
2018-07-16T21:44:58.116Z,2.50
2018-07-16T21:47:25.724Z,3.13
2018-07-16T21:49:53.247Z,2.27
2018-07-16T21:52:22.183Z,3.20
2018-07-16T21:54:50.372Z,2.10
2018-07-16T21:57:17.887Z,2.23
2018-07-16T21:59:46.159Z,1.80
2018-07-16T22:02:13.732Z,2.17
2018-07-16T22:04:41.692Z,1.70
2018-07-16T22:07:09.637Z,2.87
2018-07-16T22:09:37.636Z,3.10
2018-07-16T22:12:05.898Z,2.20
2018-07-16T22:14:33.399Z,2.93
2018-07-16T22:17:01.661Z,3.70
2018-07-16T22:19:29.568Z,3.33
2018-07-16T22:21:57.820Z,2.40
2018-07-16T22:24:25.415Z,1.97
2018-07-16T22:26:53.288Z,2.23
2018-07-16T22:29:20.849Z,2.17
2018-07-16T22:31:48.807Z,1.80
2018-07-16T22:34:16.504Z,2.17
2018-07-16T22:36:44.004Z,3.07
2018-07-16T22:39:11.936Z,2.97
2018-07-16T22:41:39.964Z,2.10
2018-07-16T22:44:07.813Z,2.50
2018-07-16T22:46:35.344Z,1.93
2018-07-16T22:49:03.223Z,2.70
2018-07-16T22:51:30.739Z,2.10
2018-07-16T22:53:59.124Z,1.90
2018-07-16T22:56:27.191Z,2.00
2018-07-16T22:58:54.711Z,2.47
2018-07-16T23:01:22.666Z,2.00
2018-07-16T23:03:50.804Z,2.70
2018-07-16T23:06:18.708Z,2.00
2018-07-16T23:08:46.688Z,2.10
2018-07-16T23:11:14.736Z,2.30
2018-07-16T23:13:42.244Z,3.20
2018-07-16T23:16:09.736Z,2.30
2018-07-16T23:18:37.932Z,3.10
2018-07-16T23:21:05.508Z,2.90
2018-07-16T23:23:34.387Z,2.77
2018-07-16T23:26:02.468Z,3.03
2018-07-16T23:28:30.010Z,2.60
2018-07-16T23:30:58.142Z,3.70
2018-07-16T23:33:26.295Z,3.23
2018-07-16T23:35:53.798Z,2.60
2018-07-16T23:38:21.316Z,2.97
2018-07-16T23:40:48.872Z,3.60
2018-07-16T23:43:17.895Z,2.90
2018-07-16T23:45:45.976Z,2.60
2018-07-16T23:48:14.254Z,2.70
2018-07-16T23:50:42.276Z,2.60
2018-07-16T23:53:09.919Z,3.07
2018-07-16T23:55:37.825Z,3.00
2018-07-16T23:58:05.979Z,3.30
